Aviation Digital Data Service (ADDS)

Output produced by METARs form (1522 UTC 23 January 2019)
found at http://www.aviationweather.gov/metar/data/
 
METAR text: MMCU 231440Z 18005KT 10SM SKC M03/M10 A3029 RMK SLP266 52007 948
Conditions at: MMCU (CHIHUAHUA INTL A, MX) observed 1440 UTC 23 January 2019
Temperature: -3.0°C (27°F)
Dewpoint: -10.0°C (14°F) [RH = 58%]
Pressure (altimeter): 30.29 inches Hg (1025.8 mb)
[Sea-level pressure: 1026.6 mb]
Winds: from the S (180 degrees) at 6 MPH (5 knots; 2.6 m/s)
Visibility: 10 or more miles (16+ km)
Ceiling: at least 12,000 feet AGL
Clouds: clear skies
Weather: no significant weather observed at this time

METAR text: MMCU 231344Z 17004KT 10SM SKC M04/M11 A3028
Conditions at: MMCU (CHIHUAHUA INTL A, MX) observed 1344 UTC 23 January 2019
Temperature: -4.0°C (25°F)
Dewpoint: -11.0°C (12°F) [RH = 58%]
Pressure (altimeter): 30.28 inches Hg (1025.5 mb)
Winds: from the S (170 degrees) at 5 MPH (4 knots; 2.1 m/s)
Visibility: 10 or more miles (16+ km)
Ceiling: at least 12,000 feet AGL
Clouds: clear skies
Weather: no significant weather observed at this time

METAR text: MMCU 231141Z 01005KT 10SM SCT030 00/M10 A3026 RMK SLP239 5//// 948 8/500 RTS
Conditions at: MMCU (CHIHUAHUA INTL A, MX) observed 1141 UTC 23 January 2019
Temperature: 0.0°C (32°F)
Dewpoint: -10.0°C (14°F) [RH = 47%]
Pressure (altimeter): 30.26 inches Hg (1024.8 mb)
[Sea-level pressure: 1023.9 mb]
Winds: from the N (10 degrees) at 6 MPH (5 knots; 2.6 m/s)
Visibility: 10 or more miles (16+ km)
Ceiling: at least 12,000 feet AGL
Clouds: scattered clouds at 3000 feet AGL
Weather: no significant weather observed at this time

METAR text: MMCU 230340Z 02015KT 10SM BKN030 08/M08 A3014 RMK 8/500
Conditions at: MMCU (CHIHUAHUA INTL A, MX) observed 0340 UTC 23 January 2019
Temperature: 8.0°C (46°F)
Dewpoint: -8.0°C (18°F) [RH = 31%]
Pressure (altimeter): 30.14 inches Hg (1020.7 mb)
Winds: from the NNE (20 degrees) at 17 MPH (15 knots; 7.7 m/s)
Visibility: 10 or more miles (16+ km)
Ceiling: 3000 feet AGL
Clouds: broken clouds at 3000 feet AGL
Weather: no significant weather observed at this time

METAR text: MMCU 230240Z 01016KT 10SM SCT030 09/M08 A3010 RMK SLP161 52034 941 8/500
Conditions at: MMCU (CHIHUAHUA INTL A, MX) observed 0240 UTC 23 January 2019
Temperature: 9.0°C (48°F)
Dewpoint: -8.0°C (18°F) [RH = 29%]
Pressure (altimeter): 30.10 inches Hg (1019.4 mb)
[Sea-level pressure: 1016.1 mb]
Winds: from the N (10 degrees) at 18 MPH (16 knots; 8.2 m/s)
Visibility: 10 or more miles (16+ km)
Ceiling: at least 12,000 feet AGL
Clouds: scattered clouds at 3000 feet AGL
Weather: no significant weather observed at this time

METAR text: MMCU 230141Z 02011KT 10SM FEW030 10/M08 A3006 RMK 8/500
Conditions at: MMCU (CHIHUAHUA INTL A, MX) observed 0141 UTC 23 January 2019
Temperature: 10.0°C (50°F)
Dewpoint: -8.0°C (18°F) [RH = 27%]
Pressure (altimeter): 30.06 inches Hg (1018.0 mb)
Winds: from the NNE (20 degrees) at 13 MPH (11 knots; 5.7 m/s)
Visibility: 10 or more miles (16+ km)
Ceiling: at least 12,000 feet AGL
Clouds: few clouds at 3000 feet AGL
Weather: no significant weather observed at this time

METAR text: MMCU 230042Z 03014KT 10SM FEW030 FEW200 10/M09 A3002 RMK 8/502
Conditions at: MMCU (CHIHUAHUA INTL A, MX) observed 0042 UTC 23 January 2019
Temperature: 10.0°C (50°F)
Dewpoint: -9.0°C (16°F) [RH = 25%]
Pressure (altimeter): 30.02 inches Hg (1016.7 mb)
Winds: from the NNE (30 degrees) at 16 MPH (14 knots; 7.2 m/s)
Visibility: 10 or more miles (16+ km)
Ceiling: at least 12,000 feet AGL
Clouds: few clouds at 3000 feet AGL
few clouds at 20000 feet AGL
Weather: no significant weather observed at this time

METAR text: MMCU 222352Z 03018KT 10SM FEW030 FEW200 12/M08 A2997 RMK SLP108 52006 927 8/502 BLDU N
Conditions at: MMCU (CHIHUAHUA INTL A, MX) observed 2352 UTC 22 January 2019
Temperature: 12.0°C (54°F)
Dewpoint: -8.0°C (18°F) [RH = 24%]
Pressure (altimeter): 29.97 inches Hg (1015.0 mb)
[Sea-level pressure: 1010.8 mb]
Winds: from the NNE (30 degrees) at 21 MPH (18 knots; 9.3 m/s)
Visibility: 10 or more miles (16+ km)
Ceiling: at least 12,000 feet AGL
Clouds: few clouds at 3000 feet AGL
few clouds at 20000 feet AGL
Weather: no significant weather observed at this time

METAR text: MMCU 222244Z 02019KT 10SM FEW200 14/M05 A2994 RMK 8/002 BLDU N
Conditions at: MMCU (CHIHUAHUA INTL A, MX) observed 2244 UTC 22 January 2019
Temperature: 14.0°C (57°F)
Dewpoint: -5.0°C (23°F) [RH = 26%]
Pressure (altimeter): 29.94 inches Hg (1014.0 mb)
Winds: from the NNE (20 degrees) at 22 MPH (19 knots; 9.8 m/s)
Visibility: 10 or more miles (16+ km)
Ceiling: at least 12,000 feet AGL
Clouds: few clouds at 20000 feet AGL
Weather: no significant weather observed at this time

METAR text: MMCU 222142Z 02017KT 10SM FEW100 SCT200 15/M02 A2991 RMK 8/072
Conditions at: MMCU (CHIHUAHUA INTL A, MX) observed 2142 UTC 22 January 2019
Temperature: 15.0°C (59°F)
Dewpoint: -2.0°C (28°F) [RH = 31%]
Pressure (altimeter): 29.91 inches Hg (1013.0 mb)
Winds: from the NNE (20 degrees) at 20 MPH (17 knots; 8.7 m/s)
Visibility: 10 or more miles (16+ km)
Ceiling: at least 12,000 feet AGL
Clouds: few clouds at 10000 feet AGL
scattered clouds at 20000 feet AGL
Weather: no significant weather observed at this time

METAR text: MMCU 222042Z 02020G30KT 10SM SCT090 BKN200 14/M03 A2989 RMK SLP091 57014 956 8/072
Conditions at: MMCU (CHIHUAHUA INTL A, MX) observed 2042 UTC 22 January 2019
Temperature: 14.0°C (57°F)
Dewpoint: -3.0°C (27°F) [RH = 31%]
Pressure (altimeter): 29.89 inches Hg (1012.3 mb)
[Sea-level pressure: 1009.1 mb]
Winds: from the NNE (20 degrees) at 23 MPH (20 knots; 10.3 m/s)
gusting to 34 MPH (30 knots; 15.4 m/s)
Visibility: 10 or more miles (16+ km)
Ceiling: 20000 feet AGL
Clouds: scattered clouds at 9000 feet AGL
broken clouds at 20000 feet AGL
Weather: no significant weather observed at this time

METAR text: MMCU 221943Z 02019G29KT 8SM SCT080 SCT200 14/M03 A2990 RMK 8/072 HZY
Conditions at: MMCU (CHIHUAHUA INTL A, MX) observed 1943 UTC 22 January 2019
Temperature: 14.0°C (57°F)
Dewpoint: -3.0°C (27°F) [RH = 31%]
Pressure (altimeter): 29.90 inches Hg (1012.6 mb)
Winds: from the NNE (20 degrees) at 22 MPH (19 knots; 9.8 m/s)
gusting to 33 MPH (29 knots; 14.9 m/s)
Visibility: 8 miles (13 km)
Ceiling: at least 12,000 feet AGL
Clouds: scattered clouds at 8000 feet AGL
scattered clouds at 20000 feet AGL
Weather: no significant weather observed at this time

METAR text: MMCU 221845Z 02019G29KT 10SM SCT070 SCT200 12/M03 A2991 RMK 8/072
Conditions at: MMCU (CHIHUAHUA INTL A, MX) observed 1845 UTC 22 January 2019
Temperature: 12.0°C (54°F)
Dewpoint: -3.0°C (27°F) [RH = 35%]
Pressure (altimeter): 29.91 inches Hg (1013.0 mb)
Winds: from the NNE (20 degrees) at 22 MPH (19 knots; 9.8 m/s)
gusting to 33 MPH (29 knots; 14.9 m/s)
Visibility: 10 or more miles (16+ km)
Ceiling: at least 12,000 feet AGL
Clouds: scattered clouds at 7000 feet AGL
scattered clouds at 20000 feet AGL
Weather: no significant weather observed at this time

METAR text: MMCU 221750Z 36018G28KT 10SM BKN070 BKN200 11/M03 A2991 RMK SLP078 52010 991 8/072
Conditions at: MMCU (CHIHUAHUA INTL A, MX) observed 1750 UTC 22 January 2019
Temperature: 11.0°C (52°F)
Dewpoint: -3.0°C (27°F) [RH = 37%]
Pressure (altimeter): 29.91 inches Hg (1013.0 mb)
[Sea-level pressure: 1007.8 mb]
Winds: from the N (360 degrees) at 21 MPH (18 knots; 9.3 m/s)
gusting to 32 MPH (28 knots; 14.4 m/s)
Visibility: 10 or more miles (16+ km)
Ceiling: 7000 feet AGL
Clouds: broken clouds at 7000 feet AGL
broken clouds at 20000 feet AGL
Weather: no significant weather observed at this time

METAR text: MMCU 221642Z 01019KT 10SM SCT070 SCT200 11/M02 A2992 RMK 8/072
Conditions at: MMCU (CHIHUAHUA INTL A, MX) observed 1642 UTC 22 January 2019
Temperature: 11.0°C (52°F)
Dewpoint: -2.0°C (28°F) [RH = 40%]
Pressure (altimeter): 29.92 inches Hg (1013.3 mb)
Winds: from the N (10 degrees) at 22 MPH (19 knots; 9.8 m/s)
Visibility: 10 or more miles (16+ km)
Ceiling: at least 12,000 feet AGL
Clouds: scattered clouds at 7000 feet AGL
scattered clouds at 20000 feet AGL
Weather: no significant weather observed at this time

METAR text: MMCU 221540Z 02016G26KT 8SM BKN070 BKN200 09/M04 A2991 RMK 8/072 HZY
Conditions at: MMCU (CHIHUAHUA INTL A, MX) observed 1540 UTC 22 January 2019
Temperature: 9.0°C (48°F)
Dewpoint: -4.0°C (25°F) [RH = 40%]
Pressure (altimeter): 29.91 inches Hg (1013.0 mb)
Winds: from the NNE (20 degrees) at 18 MPH (16 knots; 8.2 m/s)
gusting to 30 MPH (26 knots; 13.4 m/s)
Visibility: 8 miles (13 km)
Ceiling: 7000 feet AGL
Clouds: broken clouds at 7000 feet AGL
broken clouds at 20000 feet AGL
Weather: no significant weather observed at this time

METAR text: MMCU 221446Z 00000KT 8SM BKN070 12/M05 A2987 RMK SLP058 52009 992 8/070 HZY
Conditions at: MMCU (CHIHUAHUA INTL A, MX) observed 1446 UTC 22 January 2019
Temperature: 12.0°C (54°F)
Dewpoint: -5.0°C (23°F) [RH = 30%]
Pressure (altimeter): 29.87 inches Hg (1011.6 mb)
[Sea-level pressure: 1005.8 mb]
Winds: calm
Visibility: 8 miles (13 km)
Ceiling: 7000 feet AGL
Clouds: broken clouds at 7000 feet AGL
Weather: no significant weather observed at this time

METAR text: MMCU 221348Z 24010KT 10SM BKN070 14/M04 A2985 RMK 8/070
Conditions at: MMCU (CHIHUAHUA INTL A, MX) observed 1348 UTC 22 January 2019
Temperature: 14.0°C (57°F)
Dewpoint: -4.0°C (25°F) [RH = 28%]
Pressure (altimeter): 29.85 inches Hg (1010.9 mb)
Winds: from the WSW (240 degrees) at 12 MPH (10 knots; 5.1 m/s)
Visibility: 10 or more miles (16+ km)
Ceiling: 7000 feet AGL
Clouds: broken clouds at 7000 feet AGL
Weather: no significant weather observed at this time

METAR text: MMCU 221147Z 20006KT 10SM SCT070 14/M03 A2983 RMK SLP024 5//// 993 8/020 RTS
Conditions at: MMCU (CHIHUAHUA INTL A, MX) observed 1147 UTC 22 January 2019
Temperature: 14.0°C (57°F)
Dewpoint: -3.0°C (27°F) [RH = 31%]
Pressure (altimeter): 29.83 inches Hg (1010.2 mb)
[Sea-level pressure: 1002.4 mb]
Winds: from the SSW (200 degrees) at 7 MPH (6 knots; 3.1 m/s)
Visibility: 10 or more miles (16+ km)
Ceiling: at least 12,000 feet AGL
Clouds: scattered clouds at 7000 feet AGL
Weather: no significant weather observed at this time

METAR text: MMCU 220340Z 21014KT 10SM BKN070 19/M02 A2991 RMK 8/070
Conditions at: MMCU (CHIHUAHUA INTL A, MX) observed 0340 UTC 22 January 2019
Temperature: 19.0°C (66°F)
Dewpoint: -2.0°C (28°F) [RH = 24%]
Pressure (altimeter): 29.91 inches Hg (1013.0 mb)
Winds: from the SSW (210 degrees) at 16 MPH (14 knots; 7.2 m/s)
Visibility: 10 or more miles (16+ km)
Ceiling: 7000 feet AGL
Clouds: broken clouds at 7000 feet AGL
Weather: no significant weather observed at this time

Forecast for: MMCU (CHIHUAHUA INTL A, MX)
Text: TAF MMCU 230516Z 2306/2406 33008KT P6SM SCT030
Forecast period: 0600 to 1600 UTC 23 January 2019
Forecast type: FROM: standard forecast or significant change
Winds: from the NNW (330 degrees) at 9 MPH (8 knots; 4.1 m/s)
Visibility: 6 or more miles 10+ km)
Ceiling: at least 12,000 feet AGL
Clouds: scattered clouds at 3000 feet AGL
Weather: no significant weather forecast for this period
Text: FM231600 24010KT P6SM SKC
Forecast period: 1600 UTC 23 January 2019 to 0300 UTC 24 January 2019
Forecast type: FROM: standard forecast or significant change
Winds: from the WSW (240 degrees) at 12 MPH (10 knots; 5.1 m/s)
Visibility: 6 or more miles 10+ km)
Clouds: clear skies
Weather: no significant weather forecast for this period
Text: FM240300 30005KT P6SM SCT030
Forecast period: 0300 to 0600 UTC 24 January 2019
Forecast type: FROM: standard forecast or significant change
Winds: from the WNW (300 degrees) at 6 MPH (5 knots; 2.6 m/s)
Visibility: 6 or more miles 10+ km)
Ceiling: at least 12,000 feet AGL
Clouds: scattered clouds at 3000 feet AGL
Weather: no significant weather forecast for this period